METAR AND TAF INFORMATION
METAR FOR KPIR
ADDS - METARS form results

(0404 UTC 28 February 2021)
Data provider http://aviationweather.gov/metar/data/
 
METAR text: KPIR 280353Z AUTO 04016G21KT 1 3/4SM -SN BR OVC008 M03/M06 A2993 RMK AO2 CIG 007V013 SLP155 P0000 T10331056
Conditions at: KPIR (PIERRE , SD, US) observed 0353 UTC 28 February 2021
Temperature: -3.3°C (26°F)
Dewpoint: -5.6°C (22°F) [RH = 84%]
Pressure (altimeter): 29.93 inches Hg (1013.6 mb)
[Sea-level pressure: 1015.5 mb]
Winds: from the NE (40 degrees) at 18 MPH (16 knots; 8.2 m/s)
gusting to 24 MPH (21 knots; 10.8 m/s)
Visibility: 1.75 miles (2.82 km)
Ceiling: 800 feet AGL
Clouds: overcast cloud deck at 800 feet AGL
Weather: -SN BR  (light snow, mist)

METAR text: KPIR 280349Z AUTO 04014KT 1 3/4SM -SN BR OVC008 M03/M06 A2993 RMK AO2 CIG 007V012 P0000
Conditions at: KPIR (PIERRE , SD, US) observed 0349 UTC 28 February 2021
Temperature: -3.0°C (27°F)
Dewpoint: -6.0°C (21°F) [RH = 80%]
Pressure (altimeter): 29.93 inches Hg (1013.6 mb)
Winds: from the NE (40 degrees) at 16 MPH (14 knots; 7.2 m/s)
Visibility: 1.75 miles (2.82 km)
Ceiling: 800 feet AGL
Clouds: overcast cloud deck at 800 feet AGL
Weather: -SN BR  (light snow, mist)

METAR text: KPIR 280312Z AUTO 04015KT 3SM -SN BR BKN007 OVC012 M03/M05 A2992 RMK AO2 P0000 T10281050
Conditions at: KPIR (PIERRE , SD, US) observed 0312 UTC 28 February 2021
Temperature: -2.8°C (27°F)
Dewpoint: -5.0°C (23°F) [RH = 85%]
Pressure (altimeter): 29.92 inches Hg (1013.3 mb)
Winds: from the NE (40 degrees) at 17 MPH (15 knots; 7.7 m/s)
Visibility: 3 miles ( 5 km)
Ceiling: 700 feet AGL
Clouds: broken clouds at 700 feet AGL
overcast cloud deck at 1200 feet AGL
Weather: -SN BR  (light snow, mist)

Forecast for: KPIR (PIERRE , SD, US)
Text: KPIR 280318Z 2803/2824 04015KT 3SM -SN BR BKN007 OVC012
Forecast period: 0300 to 0800 UTC 28 February 2021
Forecast type: FROM: standard forecast or significant change
Winds: from the NE (40 degrees) at 17 MPH (15 knots; 7.7 m/s)
Visibility: 3 miles (5 km)
Ceiling: 700 feet AGL
Clouds: broken clouds at 700 feet AGL
overcast cloud deck at 1200 feet AGL
Weather: -SN BR  (light snow, mist)
Text: FM280800 36012G18KT P6SM VCSH BKN026
Forecast period: 0800 to 1300 UTC 28 February 2021
Forecast type: FROM: standard forecast or significant change
Winds: from the N (360 degrees) at 14 MPH (12 knots; 6.2 m/s)
gusting to 21 MPH (18 knots; 9.3 m/s)
Visibility: 6 or more miles (10+ km)
Ceiling: 2600 feet AGL
Clouds: broken clouds at 2600 feet AGL
Weather: VCSH  (showers in vicinity)
Text: FM281300 32009KT P6SM FEW120
Forecast period: 1300 UTC 28 February 2021 to 0000 UTC 01 March 2021
Forecast type: FROM: standard forecast or significant change
Winds: from the NW (320 degrees) at 10 MPH (9 knots; 4.6 m/s)
Visibility: 6 or more miles (10+ km)
Ceiling: at least 12,000 feet AGL
Clouds: few clouds at 12000 feet AGL
Weather: no significant weather forecast for this period

 AIRPORT MAP

 RUNWAY INFORMATION
Runway 07 Runway length 6887 ft Runway width 150 ft
Runway elevation 1742 ft Runway displaced threshold 0 ft Runway heading 77
Runway 25 Runway length 6887 ft Runway width 150 ft
Runway elevation 1700 ft Runway displaced threshold 0 ft Runway heading 257
Runway 13 Runway length 6900 ft Runway width 100 ft
Runway elevation 1729 ft Runway displaced threshold 0 ft Runway heading 141
Runway 31 Runway length 6900 ft Runway width 100 ft
Runway elevation 1716 ft Runway displaced threshold 0 ft Runway heading 321

 AIRPORT FREQUENCIES
Type ASOS Name ASOS Frequency 119.025 MHZ
Type CNTR Name MINNEAPOLI Frequency 125.1 MHZ
Type CTAF Name CTAF Frequency 122.7 MHZ
Type RDO Name HURON RDO Frequency 122.2 MHZ
Type UNIC Name UNICOM Frequency 122.95 MHZ

 AIRPORT NEAR NAVIGATION AIDS
Type VORTAC Name Pierre Frequency 112500 KHZ



Powered by Virtual Airlines Manager [v2.6.2]